createdAt,value
2023-05-15T00:01:41.414Z,100088.66
2023-05-15T00:04:09.160Z,100086.03
2023-05-15T00:06:36.885Z,100083.77
2023-05-15T00:09:04.610Z,100084.73
2023-05-15T00:11:32.259Z,100079.41
2023-05-15T00:14:00.096Z,100079.04
2023-05-15T00:16:28.781Z,100079.45
2023-05-15T00:18:56.652Z,100079.14
2023-05-15T00:21:24.382Z,100078.11
2023-05-15T00:23:54.166Z,100082.02
2023-05-15T00:26:23.976Z,100080.82
2023-05-15T00:28:51.938Z,100079.88
2023-05-15T00:31:19.757Z,100075.60
2023-05-15T00:33:47.772Z,100070.80
2023-05-15T00:36:15.491Z,100069.27
2023-05-15T00:38:43.718Z,100064.66
2023-05-15T00:41:13.587Z,100064.80
2023-05-15T00:43:43.374Z,100066.17
2023-05-15T00:46:13.403Z,100066.05
2023-05-15T00:48:42.606Z,100076.89
2023-05-15T00:51:10.593Z,100080.50
2023-05-15T00:53:38.765Z,100079.16
2023-05-15T00:56:09.287Z,100079.45
2023-05-15T00:58:38.509Z,100076.30
2023-05-15T01:01:08.316Z,100064.63
2023-05-15T01:03:37.672Z,100059.30
2023-05-15T01:06:06.059Z,100061.87
2023-05-15T01:08:39.971Z,100062.05
2023-05-15T01:11:09.097Z,100055.20
2023-05-15T01:13:36.775Z,100039.05
2023-05-15T01:16:07.402Z,100030.56
2023-05-15T01:18:36.357Z,100025.79
2023-05-15T01:21:25.667Z,100026.31
2023-05-15T01:24:17.773Z,100023.71
2023-05-15T01:27:10.302Z,100022.64
2023-05-15T01:29:58.160Z,100028.39
2023-05-15T01:33:04.550Z,100031.74
2023-05-15T01:35:39.758Z,100027.27
2023-05-15T01:38:07.476Z,100022.43
2023-05-15T01:40:35.746Z,100016.54
2023-05-15T01:43:09.151Z,100011.28
2023-05-15T01:45:38.603Z,100006.91
2023-05-15T01:48:09.078Z,100008.73
2023-05-15T01:50:39.927Z,100003.48
2023-05-15T01:53:09.378Z,100001.63
2023-05-15T01:55:38.764Z,100007.47
2023-05-15T01:58:07.224Z,100006.08
2023-05-15T02:00:36.733Z,100013.40
2023-05-15T02:03:06.145Z,100013.48
2023-05-15T02:05:34.755Z,100008.61
2023-05-15T02:08:04.309Z,99996.98
2023-05-15T02:10:33.203Z,100001.71
2023-05-15T02:13:01.861Z,99994.42
2023-05-15T02:15:30.346Z,99989.92
2023-05-15T02:17:58.073Z,99985.02
2023-05-15T02:20:25.962Z,99985.47
2023-05-15T02:22:53.610Z,99980.45
2023-05-15T02:25:34.637Z,99974.05
2023-05-15T02:28:06.756Z,99973.78
2023-05-15T02:30:38.647Z,99968.91
2023-05-15T02:33:14.883Z,99944.33
2023-05-15T02:35:58.804Z,99938.39
2023-05-15T02:38:39.174Z,99931.58
2023-05-15T02:41:07.875Z,99930.55
2023-05-15T02:43:36.570Z,99922.25
2023-05-15T02:46:07.388Z,99911.73
2023-05-15T02:48:39.663Z,99914.42
2023-05-15T02:51:07.831Z,99917.34
2023-05-15T02:53:40.743Z,99917.03
2023-05-15T02:56:09.067Z,99914.84
2023-05-15T02:58:37.906Z,99917.94
2023-05-15T03:01:06.278Z,99905.52
2023-05-15T03:03:34.247Z,99901.46
2023-05-15T03:06:02.180Z,99897.16
2023-05-15T03:08:29.838Z,99901.02
2023-05-15T03:10:58.225Z,99899.70
2023-05-15T03:13:26.327Z,99895.78
2023-05-15T03:15:53.997Z,99885.02
2023-05-15T03:18:21.713Z,99873.19
2023-05-15T03:20:52.685Z,99865.56
2023-05-15T03:23:22.885Z,99869.58
2023-05-15T03:25:50.598Z,99874.70
2023-05-15T03:28:18.349Z,99865.84
2023-05-15T03:30:46.086Z,99856.20
2023-05-15T03:33:13.789Z,99848.60
2023-05-15T03:35:41.476Z,99835.80
2023-05-15T03:38:09.133Z,99847.70
2023-05-15T03:40:39.324Z,99854.70
2023-05-15T03:46:07.784Z,99834.94
2023-05-15T03:48:35.491Z,99835.90
2023-05-15T03:51:06.784Z,99833.02
2023-05-15T03:53:34.480Z,99826.11
2023-05-15T03:56:03.500Z,99827.39
2023-05-15T03:58:32.185Z,99818.30
2023-05-15T04:01:00.196Z,99812.38
2023-05-15T04:03:28.090Z,99801.59
2023-05-15T04:05:56.488Z,99803.06
2023-05-15T04:08:24.311Z,99799.06
2023-05-15T04:10:52.272Z,99799.15
2023-05-15T04:13:20.332Z,99794.11
2023-05-15T04:15:48.846Z,99799.77
2023-05-15T04:18:16.495Z,99808.94
2023-05-15T04:20:44.196Z,99811.04
2023-05-15T04:23:11.871Z,99817.59
2023-05-15T04:25:42.591Z,99818.42
2023-05-15T04:28:10.665Z,99821.97
2023-05-15T04:30:38.347Z,99814.64
2023-05-15T04:33:06.052Z,99813.94
2023-05-15T04:35:33.928Z,99813.23
2023-05-15T04:38:02.080Z,99814.64
2023-05-15T04:40:29.834Z,99814.88
2023-05-15T04:42:57.541Z,99811.56
2023-05-15T04:45:25.425Z,99805.45
2023-05-15T04:47:53.486Z,99801.39
2023-05-15T04:50:21.385Z,99795.40
2023-05-15T04:52:49.426Z,99786.96
2023-05-15T04:55:17.426Z,99784.20
2023-05-15T04:57:46.791Z,99779.05
2023-05-15T05:00:15.173Z,99784.02
2023-05-15T05:02:45.495Z,99779.42
2023-05-15T05:05:14.886Z,99769.83
2023-05-15T05:07:44.376Z,99768.48
2023-05-15T05:10:12.401Z,99758.93
2023-05-15T05:12:40.133Z,99759.63
2023-05-15T05:15:08.737Z,99756.55
2023-05-15T05:17:36.425Z,99758.76
2023-05-15T05:20:04.948Z,99757.83
2023-05-15T05:22:32.921Z,99757.95
2023-05-15T05:25:00.836Z,99756.45
2023-05-15T05:27:28.670Z,99752.78
2023-05-15T05:29:56.455Z,99753.89
2023-05-15T05:32:24.273Z,99751.77
2023-05-15T05:34:53.117Z,99753.61
2023-05-15T05:37:20.798Z,99757.38
2023-05-15T05:39:48.486Z,99759.48
2023-05-15T05:42:16.240Z,99759.28
2023-05-15T05:44:43.930Z,99759.58
2023-05-15T05:47:11.996Z,99762.50
2023-05-15T05:49:40.392Z,99762.90
2023-05-15T05:52:08.573Z,99765.04
2023-05-15T05:54:36.546Z,99767.15
2023-05-15T05:57:04.608Z,99767.83
2023-05-15T05:59:32.412Z,99765.02
2023-05-15T06:02:00.281Z,99768.88
2023-05-15T06:04:28.352Z,99768.84
2023-05-15T06:06:56.693Z,99771.80
2023-05-15T06:09:24.445Z,99778.70
2023-05-15T06:11:52.345Z,99773.79
2023-05-15T06:14:21.297Z,99775.05
2023-05-15T06:16:49.157Z,99771.48
2023-05-15T06:19:17.028Z,99774.89
2023-05-15T06:21:44.804Z,99776.29
2023-05-15T06:24:12.471Z,99776.73
2023-05-15T06:26:40.174Z,99778.64
2023-05-15T06:29:07.855Z,99775.01
2023-05-15T06:31:35.544Z,99777.34
2023-05-15T06:34:03.215Z,99777.45
2023-05-15T06:36:30.974Z,99777.33
2023-05-15T06:38:58.662Z,99777.80
2023-05-15T06:42:01.440Z,99777.21
2023-05-15T06:44:31.363Z,99774.34
2023-05-15T06:46:59.646Z,99769.31
2023-05-15T06:49:27.969Z,99767.84
2023-05-15T06:51:55.750Z,99766.88
2023-05-15T06:54:23.408Z,99762.08
2023-05-15T06:56:51.052Z,99767.58
2023-05-15T06:59:18.751Z,99769.31
2023-05-15T07:01:46.448Z,99770.84
2023-05-15T07:04:14.153Z,99769.55
2023-05-15T07:06:42.375Z,99769.66
2023-05-15T07:09:09.994Z,99766.98
2023-05-15T07:11:39.075Z,99761.04
2023-05-15T07:14:07.065Z,99772.48
2023-05-15T07:16:34.789Z,99772.60
2023-05-15T07:19:02.599Z,99765.42
2023-05-15T07:21:30.883Z,99768.56
2023-05-15T07:23:58.618Z,99762.06
2023-05-15T07:26:34.179Z,99760.58
2023-05-15T07:29:04.430Z,99754.69
2023-05-15T07:31:33.589Z,99755.86
2023-05-15T07:34:01.408Z,99752.36
2023-05-15T07:36:29.220Z,99745.54
2023-05-15T07:38:56.945Z,99742.57
2023-05-15T07:41:24.742Z,99742.94
2023-05-15T07:43:52.474Z,99739.56
2023-05-15T07:46:20.182Z,99737.35
2023-05-15T07:48:47.881Z,99731.91
2023-05-15T07:51:15.834Z,99726.30
2023-05-15T07:53:43.491Z,99717.90
2023-05-15T07:56:11.199Z,99726.36
2023-05-15T07:58:38.878Z,99727.80
2023-05-15T08:01:06.742Z,99727.79
2023-05-15T08:03:35.047Z,99732.48
2023-05-15T08:06:02.880Z,99735.75
2023-05-15T08:08:31.393Z,99722.76
2023-05-15T08:10:59.089Z,99724.74
2023-05-15T08:13:26.901Z,99719.77
2023-05-15T08:15:54.723Z,99719.59
2023-05-15T08:18:22.439Z,99716.37
2023-05-15T08:20:50.114Z,99718.03
2023-05-15T08:23:17.924Z,99715.70
2023-05-15T08:25:45.635Z,99709.42
2023-05-15T08:28:13.269Z,99709.98
2023-05-15T08:30:40.990Z,99706.44
2023-05-15T08:33:09.152Z,99700.63
2023-05-15T08:35:37.271Z,99694.18
2023-05-15T08:38:04.982Z,99687.35
2023-05-15T08:40:38.923Z,99677.33
2023-05-15T08:43:15.089Z,99673.60
2023-05-15T08:45:43.933Z,99672.95
2023-05-15T08:48:16.083Z,99669.02
2023-05-15T08:50:44.502Z,99665.38
2023-05-15T08:53:13.497Z,99665.55
2023-05-15T08:55:41.693Z,99669.14
2023-05-15T08:58:09.771Z,99679.89
2023-05-15T09:00:37.954Z,99683.88
2023-05-15T09:03:05.761Z,99691.05
2023-05-15T09:05:34.465Z,99691.33
2023-05-15T09:08:05.503Z,99685.27
2023-05-15T09:10:34.118Z,99672.30
2023-05-15T09:13:02.740Z,99674.16
2023-05-15T09:15:30.886Z,99670.15
2023-05-15T09:17:59.228Z,99671.20
2023-05-15T09:20:27.257Z,99660.94
2023-05-15T09:22:59.652Z,99661.89
2023-05-15T09:25:40.514Z,99661.72
2023-05-15T09:28:11.016Z,99661.34
2023-05-15T09:30:41.727Z,99658.11
2023-05-15T09:33:09.766Z,99658.04
2023-05-15T09:35:39.244Z,99661.52
2023-05-15T09:38:12.490Z,99660.42
2023-05-15T09:40:41.281Z,99658.85
2023-05-15T09:43:12.187Z,99660.16
2023-05-15T09:45:40.032Z,99656.02
2023-05-15T09:48:08.298Z,99653.15
2023-05-15T09:50:40.947Z,99646.77
2023-05-15T09:53:12.005Z,99643.21
2023-05-15T09:55:41.819Z,99640.39
2023-05-15T09:58:17.415Z,99639.48
2023-05-15T10:00:48.768Z,99639.79
2023-05-15T10:03:20.083Z,99636.42
2023-05-15T10:05:48.228Z,99639.84
2023-05-15T10:08:25.928Z,99630.95
2023-05-15T10:10:54.271Z,99633.79
2023-05-15T10:13:23.072Z,99632.60
2023-05-15T10:15:52.407Z,99633.09
2023-05-15T10:18:22.670Z,99633.66
2023-05-15T10:20:50.590Z,99642.56
2023-05-15T10:23:20.637Z,99642.26
2023-05-15T10:25:54.719Z,99643.95
2023-05-15T10:28:23.070Z,99653.92
2023-05-15T10:30:52.027Z,99658.41
2023-05-15T10:33:20.595Z,99655.27
2023-05-15T10:35:49.019Z,99649.27
2023-05-15T10:38:19.439Z,99649.10
2023-05-15T10:40:50.863Z,99650.70
2023-05-15T10:46:36.761Z,99645.86
2023-05-15T10:49:04.464Z,99642.79
2023-05-15T10:51:33.145Z,99639.92
2023-05-15T10:54:02.890Z,99644.59
2023-05-15T10:56:31.013Z,99640.40
2023-05-15T10:58:57.615Z,99643.13
2023-05-15T11:01:28.957Z,99646.84
2023-05-15T11:04:07.319Z,99636.05
2023-05-15T11:06:34.361Z,99637.54
2023-05-15T11:09:19.191Z,99640.25
2023-05-15T11:11:51.145Z,99640.77
2023-05-15T11:14:18.347Z,99642.91
2023-05-15T11:16:53.979Z,99639.50
2023-05-15T11:19:37.192Z,99637.55
2023-05-15T11:22:15.984Z,99636.80
2023-05-15T11:24:48.461Z,99635.46
2023-05-15T11:27:23.899Z,99629.89
2023-05-15T11:30:06.601Z,99626.00
2023-05-15T11:32:51.353Z,99626.34
2023-05-15T11:35:17.629Z,99626.65
2023-05-15T11:38:10.484Z,99624.95
2023-05-15T11:40:55.791Z,99620.63
2023-05-15T11:43:24.905Z,99615.19
2023-05-15T11:45:58.185Z,99611.94
2023-05-15T11:48:32.243Z,99615.41
2023-05-15T11:51:00.538Z,99614.54
2023-05-15T11:53:29.010Z,99609.70
2023-05-15T11:55:55.439Z,99613.73
2023-05-15T11:58:23.655Z,99602.93
2023-05-15T12:00:51.505Z,99599.28
2023-05-15T12:03:21.265Z,99606.61
2023-05-15T12:05:58.315Z,99602.20
2023-05-15T12:08:33.077Z,99602.32
2023-05-15T12:11:00.406Z,99605.60
2023-05-15T12:13:26.863Z,99604.35
2023-05-15T12:15:54.389Z,99605.34
2023-05-15T12:18:20.669Z,99597.06
2023-05-15T12:20:47.582Z,99605.08
2023-05-15T12:23:15.838Z,99603.56
2023-05-15T12:25:44.320Z,99603.58
2023-05-15T12:28:12.338Z,99594.88
2023-05-15T12:30:39.294Z,99589.51
2023-05-15T12:33:08.090Z,99591.87
2023-05-15T12:35:36.060Z,99585.25
2023-05-15T12:38:03.861Z,99583.27
2023-05-15T12:40:34.150Z,99580.23
2023-05-15T12:43:06.079Z,99577.73
2023-05-15T12:45:34.540Z,99573.40
2023-05-15T12:48:01.621Z,99571.98
2023-05-15T12:50:30.064Z,99574.58
2023-05-15T12:52:58.265Z,99570.16
2023-05-15T12:55:31.718Z,99570.95
2023-05-15T12:58:05.749Z,99568.02
2023-05-15T13:00:35.621Z,99561.51
2023-05-15T13:03:03.210Z,99564.84
2023-05-15T13:05:34.010Z,99560.45
2023-05-15T13:08:02.140Z,99553.23
2023-05-15T13:10:34.924Z,99551.12
2023-05-15T13:13:02.023Z,99546.04
2023-05-15T13:15:57.844Z,99541.11
2023-05-15T13:18:24.711Z,99530.90
2023-05-15T13:20:51.027Z,99540.89
2023-05-15T13:23:19.609Z,99544.02
2023-05-15T13:25:45.983Z,99552.78
2023-05-15T13:28:13.188Z,99555.45
2023-05-15T13:30:43.382Z,99545.09
2023-05-15T13:33:11.892Z,99538.60
2023-05-15T13:35:39.379Z,99536.48
2023-05-15T13:38:09.417Z,99537.30
2023-05-15T13:40:38.252Z,99535.66
2023-05-15T13:43:07.397Z,99530.98
2023-05-15T13:45:34.227Z,99529.41
2023-05-15T13:48:00.944Z,99527.92
2023-05-15T13:50:27.668Z,99520.77
2023-05-15T13:52:54.153Z,99510.91
2023-05-15T13:55:22.784Z,99514.13
2023-05-15T13:57:50.791Z,99517.70
2023-05-15T14:00:17.913Z,99517.09
2023-05-15T14:02:44.927Z,99514.36
2023-05-15T14:05:12.958Z,99513.91
2023-05-15T14:07:42.665Z,99513.88
2023-05-15T14:10:10.651Z,99514.33
2023-05-15T14:12:37.934Z,99510.80
2023-05-15T14:15:05.244Z,99506.51
2023-05-15T14:17:31.674Z,99500.46
2023-05-15T14:19:58.103Z,99497.74
2023-05-15T14:22:24.577Z,99493.97
2023-05-15T14:24:52.210Z,99501.27
2023-05-15T14:27:18.909Z,99505.70
2023-05-15T14:29:45.504Z,99512.98
2023-05-15T14:32:12.201Z,99511.95
2023-05-15T14:34:38.615Z,99520.19
2023-05-15T14:37:04.885Z,99514.00
2023-05-15T14:39:31.352Z,99511.43
2023-05-15T14:41:57.938Z,99508.02
2023-05-15T14:44:24.274Z,99504.09
2023-05-15T14:47:06.333Z,99499.58
2023-05-15T14:49:33.760Z,99505.13
2023-05-15T14:52:00.360Z,99503.27
2023-05-15T14:54:26.725Z,99511.30
2023-05-15T14:56:53.769Z,99513.59
2023-05-15T14:59:21.083Z,99516.63
2023-05-15T15:01:47.328Z,99519.13
2023-05-15T15:04:13.929Z,99516.90
2023-05-15T15:06:40.641Z,99511.82
2023-05-15T15:09:06.990Z,99513.98
2023-05-15T15:11:33.298Z,99514.17
2023-05-15T15:14:00.028Z,99514.10
2023-05-15T15:16:26.452Z,99509.48
2023-05-15T15:18:52.871Z,99501.00
2023-05-15T15:21:19.139Z,99494.84
2023-05-15T15:23:45.465Z,99491.60
2023-05-15T15:26:11.787Z,99488.76
2023-05-15T15:28:38.086Z,99485.52
2023-05-15T15:31:04.656Z,99483.33
2023-05-15T15:33:31.148Z,99488.34
2023-05-15T15:35:57.380Z,99480.31
2023-05-15T15:38:23.681Z,99484.39
2023-05-15T15:40:50.002Z,99483.21
2023-05-15T15:43:16.279Z,99480.92
2023-05-15T15:45:42.633Z,99476.07
2023-05-15T15:48:09.003Z,99473.20
2023-05-15T15:50:35.491Z,99473.41
2023-05-15T15:53:01.783Z,99469.52
2023-05-15T15:55:28.079Z,99468.58
2023-05-15T15:57:54.332Z,99470.31
2023-05-15T16:00:21.216Z,99468.17
2023-05-15T16:02:47.677Z,99464.79
2023-05-15T16:05:14.285Z,99459.36
2023-05-15T16:07:40.549Z,99462.36
2023-05-15T16:10:12.396Z,99457.19
2023-05-15T16:12:40.122Z,99457.80
2023-05-15T16:15:20.728Z,99461.48
2023-05-15T16:17:53.300Z,99463.73
2023-05-15T16:20:20.567Z,99468.69
2023-05-15T16:22:46.912Z,99475.48
2023-05-15T16:25:13.233Z,99472.50
2023-05-15T16:27:39.723Z,99470.46
2023-05-15T16:30:06.836Z,99460.30
2023-05-15T16:32:33.232Z,99453.62
2023-05-15T16:34:59.515Z,99453.58
2023-05-15T16:37:25.826Z,99454.25
2023-05-15T16:39:53.292Z,99460.11
2023-05-15T16:42:19.658Z,99467.71
2023-05-15T16:44:46.098Z,99464.63
2023-05-15T16:47:12.385Z,99460.96
2023-05-15T16:49:38.633Z,99460.98
2023-05-15T16:52:05.021Z,99469.40
2023-05-15T16:54:31.319Z,99478.61
2023-05-15T16:56:57.572Z,99482.98
2023-05-15T16:59:23.808Z,99477.07
2023-05-15T17:01:50.464Z,99475.41
2023-05-15T17:04:17.029Z,99474.85
2023-05-15T17:06:43.809Z,99471.23
2023-05-15T17:09:10.390Z,99469.06
2023-05-15T17:11:36.737Z,99468.83
2023-05-15T17:14:03.541Z,99468.20
2023-05-15T17:16:30.184Z,99472.70
2023-05-15T17:18:56.539Z,99484.59
2023-05-15T17:21:23.112Z,99488.45
2023-05-15T17:23:51.876Z,99484.05
2023-05-15T17:26:18.212Z,99484.98
2023-05-15T17:28:44.745Z,99484.02
2023-05-15T17:31:12.156Z,99492.58
2023-05-15T17:33:38.421Z,99489.05
2023-05-15T17:36:05.007Z,99493.31
2023-05-15T17:38:31.293Z,99493.56
2023-05-15T17:40:57.620Z,99491.42
2023-05-15T17:43:24.020Z,99498.42
2023-05-15T17:45:50.468Z,99505.02
2023-05-15T17:48:16.904Z,99510.13
2023-05-15T17:50:43.160Z,99513.08
2023-05-15T17:53:09.441Z,99508.18
2023-05-15T17:55:35.989Z,99509.04
2023-05-15T17:58:02.287Z,99514.17
2023-05-15T18:00:28.871Z,99512.75
2023-05-15T18:02:55.409Z,99518.91
2023-05-15T18:05:22.640Z,99531.10
2023-05-15T18:07:48.878Z,99524.63
2023-05-15T18:10:15.170Z,99516.63
2023-05-15T18:12:41.542Z,99526.60
2023-05-15T18:15:08.291Z,99538.05
2023-05-15T18:17:34.940Z,99557.45
2023-05-15T18:20:01.648Z,99562.10
2023-05-15T18:22:28.934Z,99554.48
2023-05-15T18:24:55.218Z,99563.14
2023-05-15T18:27:21.493Z,99571.77
2023-05-15T18:29:48.031Z,99565.98
2023-05-15T18:32:14.336Z,99568.73
2023-05-15T18:34:40.703Z,99564.56
2023-05-15T18:37:07.471Z,99576.67
2023-05-15T18:39:36.321Z,99569.39
2023-05-15T18:42:02.818Z,99575.04
2023-05-15T18:44:31.556Z,99573.61
2023-05-15T18:46:57.997Z,99572.46
2023-05-15T18:49:24.272Z,99576.02
2023-05-15T18:51:50.545Z,99571.02
2023-05-15T18:54:16.922Z,99576.19
2023-05-15T18:56:43.340Z,99574.56
2023-05-15T18:59:09.813Z,99573.26
2023-05-15T19:01:36.549Z,99573.55
2023-05-15T19:04:03.191Z,99573.23
2023-05-15T19:06:30.333Z,99579.19
2023-05-15T19:08:56.709Z,99579.79
2023-05-15T19:11:23.057Z,99582.98
2023-05-15T19:13:49.368Z,99584.89
2023-05-15T19:16:15.695Z,99579.29
2023-05-15T19:18:42.061Z,99582.07
2023-05-15T19:21:08.413Z,99579.50
2023-05-15T19:23:35.114Z,99587.73
2023-05-15T19:26:01.428Z,99586.16
2023-05-15T19:28:27.733Z,99585.79
2023-05-15T19:30:53.984Z,99591.08
2023-05-15T19:33:20.608Z,99589.90
2023-05-15T19:35:47.000Z,99588.86
2023-05-15T19:38:13.283Z,99588.80
2023-05-15T19:40:43.181Z,99583.25
2023-05-15T19:43:10.701Z,99580.58
2023-05-15T19:45:40.506Z,99578.50
2023-05-15T19:48:06.862Z,99582.19
2023-05-15T19:50:33.495Z,99584.75
2023-05-15T19:52:59.833Z,99580.06
2023-05-15T19:55:26.317Z,99582.95
2023-05-15T19:57:55.144Z,99583.75
2023-05-15T20:00:21.936Z,99584.45
2023-05-15T20:02:49.187Z,99584.24
2023-05-15T20:05:15.643Z,99582.87
2023-05-15T20:07:42.514Z,99587.95
2023-05-15T20:10:10.019Z,99585.64
2023-05-15T20:12:36.510Z,99583.33
2023-05-15T20:15:03.047Z,99584.60
2023-05-15T20:17:29.366Z,99588.04
2023-05-15T20:19:58.861Z,99588.69
2023-05-15T20:22:25.259Z,99593.84
2023-05-15T20:24:51.571Z,99592.04
2023-05-15T20:27:20.061Z,99595.55
2023-05-15T20:29:46.371Z,99594.81
2023-05-15T20:32:12.936Z,99592.77
2023-05-15T20:34:42.571Z,99593.36
2023-05-15T20:37:09.206Z,99598.72
2023-05-15T20:39:35.929Z,99596.79
2023-05-15T20:42:02.295Z,99593.77
2023-05-15T20:44:29.254Z,99596.45
2023-05-15T20:46:55.654Z,99597.56
2023-05-15T20:49:22.921Z,99593.33
2023-05-15T20:51:49.396Z,99595.65
2023-05-15T20:54:15.684Z,99592.64
2023-05-15T20:56:42.978Z,99585.83
2023-05-15T20:59:09.343Z,99577.23
2023-05-15T21:01:36.754Z,99571.66
2023-05-15T21:04:04.064Z,99569.94
2023-05-15T21:06:30.383Z,99566.45
2023-05-15T21:08:56.671Z,99564.73
2023-05-15T21:11:23.093Z,99562.71
2023-05-15T21:13:49.507Z,99571.91
2023-05-15T21:16:15.830Z,99571.80
2023-05-15T21:18:42.119Z,99572.92
2023-05-15T21:21:08.608Z,99579.19
2023-05-15T21:23:35.848Z,99581.22
2023-05-15T21:26:02.983Z,99581.94
2023-05-15T21:28:29.781Z,99578.61
2023-05-15T21:30:56.566Z,99581.68
2023-05-15T21:33:23.133Z,99583.00
2023-05-15T21:35:50.607Z,99578.34
2023-05-15T21:38:16.909Z,99578.98
2023-05-15T21:40:44.052Z,99581.19
2023-05-15T21:43:10.347Z,99582.85
2023-05-15T21:45:36.613Z,99585.22
2023-05-15T21:48:03.129Z,99585.38
2023-05-15T21:50:29.614Z,99580.90
2023-05-15T21:52:56.549Z,99578.89
2023-05-15T21:55:22.900Z,99582.49
2023-05-15T21:57:49.283Z,99583.90
2023-05-15T22:00:16.353Z,99583.34
2023-05-15T22:02:42.757Z,99584.69
2023-05-15T22:05:09.523Z,99593.13
2023-05-15T22:07:35.889Z,99598.81
2023-05-15T22:10:02.496Z,99601.11
2023-05-15T22:12:29.316Z,99604.41
2023-05-15T22:14:58.720Z,99603.36
2023-05-15T22:17:28.244Z,99612.17
2023-05-15T22:20:01.834Z,99615.29
2023-05-15T22:22:28.388Z,99615.51
2023-05-15T22:24:55.199Z,99617.27
2023-05-15T22:27:21.441Z,99616.14
2023-05-15T22:29:47.796Z,99617.45
2023-05-15T22:32:14.143Z,99620.28
2023-05-15T22:34:40.399Z,99619.18
2023-05-15T22:37:06.711Z,99621.02
2023-05-15T22:39:33.450Z,99626.39
2023-05-15T22:41:59.787Z,99624.80
2023-05-15T22:44:26.976Z,99621.89
2023-05-15T22:46:53.423Z,99622.02
2023-05-15T22:49:24.683Z,99626.52
2023-05-15T22:51:51.775Z,99629.92
2023-05-15T22:54:21.212Z,99624.11
2023-05-15T22:56:49.879Z,99622.83
2023-05-15T22:59:16.343Z,99624.55
2023-05-15T23:01:44.348Z,99624.80
2023-05-15T23:04:11.329Z,99626.61
2023-05-15T23:06:39.465Z,99622.91
2023-05-15T23:09:07.091Z,99622.88
2023-05-15T23:11:34.339Z,99627.33
2023-05-15T23:14:01.139Z,99621.46
2023-05-15T23:16:27.884Z,99619.88
2023-05-15T23:18:56.555Z,99621.73
2023-05-15T23:21:23.160Z,99620.23
2023-05-15T23:23:49.423Z,99618.52
2023-05-15T23:26:15.760Z,99618.55
2023-05-15T23:28:42.224Z,99618.55
2023-05-15T23:31:11.877Z,99619.86
2023-05-15T23:33:38.325Z,99618.71
2023-05-15T23:36:05.421Z,99619.25
2023-05-15T23:38:32.031Z,99615.58
2023-05-15T23:40:58.728Z,99616.15
2023-05-15T23:43:25.617Z,99612.19
2023-05-15T23:45:51.987Z,99614.80
2023-05-15T23:48:18.240Z,99614.31
2023-05-15T23:50:44.536Z,99613.98
2023-05-15T23:53:10.837Z,99613.45
2023-05-15T23:55:37.249Z,99615.09
2023-05-15T23:58:03.638Z,99615.29
